Hauptseite
METAR-TAF:

METAR-TAF

Flughäfen :

Flughafen Kuwait

Kuwait-Stadt, Kuwait

Breite: 29-13N, Länge: 047-59E, Höhe: 55 m

Beobachtung

Neuester Wetterbericht von vor 9 Minuten, um 18:00 UTC
Wind 4 kt aus Süd
Temperatur 18°C
Luftfeuchtigkeit 39%
Luftdruck 1015 hPa
Sichtweite 10 km oder mehr
keine Wolken unter 1500 m und keine Kumulonimbus oder Gewitterwolken

METAR: OKBK 201800Z 18004KT CAVOK 18/04 Q1015 NOSIG

Zeit: 21:09 (18:09 UTC)

Prognose

Neuester Wetterbericht von vor 1 Stunde und 24 Minuten, um 16:45 UTC
Gültige Prognose vom 20 um 18 UTC bis 21 um 24 UTC
Wind 3 kt aus unterschiedlichen Richtungen
Sichtweite: 7000 m
Leicht bewölkt in der Höhe von 3000 ft
Durchbrochene Bewölkung in der Höhe von 8000 ft
Zeitweise
vom 20 um 18 UTC bis 20 um 23 UTC
Sichtweite: 4000 m
Regen

TAF: OKBK 201645Z 2018/2124 VRB03KT 7000 FEW030 BKN080 TEMPO 2018/2023 4000 RA

Wetterbeobachtungen und Prognosen von mehr als 4000 Flughäfen (METAR und TAF Bericht).

Die verfügbaren Stationen werden durch gelbe und rote Markierungen auf der Karte dargestellt.

Führen Sie die Maus auf sie, um den Namen der Station zu sehen.

Darauf klicken, um die Beobachtung von Wetterbeobachtungen und Prognosen zu sehen.

Um die Karte zu ändern : klicken Sie auf den grünen Tasten mit einem schwarzen Kreuz Zum Vergrößern, auf den grünen Button mit einem Gedankenstrich zu verkleinern, oder auf die grünen Pfeile für benachbarte Karten.


METAR-TAF: